Time;durP1;ratioP1;P1;durP2;ratioP2;P2;SDS_P1;SDS_P2;PMS_P1;PMS_P2;Temp;Humidity;BMP_temperature;BMP_pressure;BME280_temperature;BME280_humidity;BME280_pressure;Samples;Min_cycle;Max_cycle;Signal;HPM_P1;HPM_P2
2023/07/14 00:01:53;;;;;;;6.25;5.47;;;19.00;99.90;;;;;;5045732;28;20091;-41
2023/07/14 00:04:27;;;;;;;7.30;5.63;;;19.00;99.90;;;;;;5043534;28;20461;-46
2023/07/14 00:06:55;;;;;;;8.23;5.97;;;19.00;99.90;;;;;;5048743;28;20057;-44
2023/07/14 00:09:28;;;;;;;7.72;5.85;;;18.90;99.90;;;;;;5044174;28;20048;-45
2023/07/14 00:11:57;;;;;;;7.30;5.95;;;18.80;99.90;;;;;;5041596;28;20072;-44
2023/07/14 00:14:24;;;;;;;8.48;6.13;;;18.80;99.90;;;;;;5044412;28;20053;-40
2023/07/14 00:16:52;;;;;;;8.30;6.60;;;18.70;99.90;;;;;;5040251;28;20049;-41
2023/07/14 00:19:20;;;;;;;8.27;5.63;;;18.70;99.90;;;;;;5045156;28;20409;-41
2023/07/14 00:21:49;;;;;;;8.20;5.97;;;18.60;99.90;;;;;;5044169;28;20489;-43
2023/07/14 00:24:20;;;;;;;6.93;5.60;;;18.60;99.90;;;;;;5043628;28;20045;-43
2023/07/14 00:26:56;;;;;;;7.90;5.82;;;18.50;99.90;;;;;;5042439;28;20049;-44
2023/07/14 00:29:25;;;;;;;8.75;5.95;;;18.50;99.90;;;;;;5040351;28;20041;-45
2023/07/14 00:31:53;;;;;;;8.98;5.80;;;18.40;99.90;;;;;;5045027;28;20053;-44
2023/07/14 00:34:21;;;;;;;7.20;5.78;;;18.30;99.90;;;;;;5048347;28;20040;-45
2023/07/14 00:36:49;;;;;;;12.82;6.45;;;18.30;99.90;;;;;;5044105;28;20095;-41
2023/07/14 00:39:16;;;;;;;7.82;6.10;;;18.20;99.90;;;;;;5048984;28;20041;-45
2023/07/14 00:41:44;;;;;;;9.68;6.13;;;18.20;99.90;;;;;;5041778;28;20072;-45
2023/07/14 00:44:14;;;;;;;6.75;5.97;;;18.20;99.90;;;;;;5043110;28;20439;-45
2023/07/14 00:46:44;;;;;;;10.10;5.90;;;18.20;99.90;;;;;;5038186;28;20045;-40
2023/07/14 00:49:25;;;;;;;6.90;6.00;;;18.10;99.90;;;;;;5026067;28;20057;-43
2023/07/14 00:51:53;;;;;;;8.68;6.20;;;18.10;99.90;;;;;;5045103;28;20088;-43
2023/07/14 00:54:29;;;;;;;8.57;6.00;;;18.10;99.90;;;;;;5031831;28;20436;-43
2023/07/14 00:56:56;;;;;;;8.45;5.93;;;18.10;99.90;;;;;;5034033;28;20045;-42
2023/07/14 00:59:33;;;;;;;9.82;5.88;;;18.10;99.90;;;;;;5035110;28;20053;-44
2023/07/14 01:02:23;;;;;;;7.80;6.05;;;18.10;99.90;;;;;;5022820;28;20049;-44
2023/07/14 01:05:03;;;;;;;8.45;6.30;;;18.10;99.90;;;;;;5042932;28;20088;-40
2023/07/14 01:07:43;;;;;;;6.63;5.47;;;18.10;99.90;;;;;;5040570;28;20041;-44
2023/07/14 01:10:14;;;;;;;9.32;6.05;;;18.10;99.90;;;;;;5043389;28;20475;-42
2023/07/14 01:12:48;;;;;;;8.63;6.18;;;18.00;99.90;;;;;;5044026;28;20068;-46
2023/07/14 01:15:17;;;;;;;8.18;6.13;;;18.00;99.90;;;;;;5041521;28;20061;-42
2023/07/14 01:17:47;;;;;;;6.95;5.93;;;17.90;99.90;;;;;;5041235;28;20135;-42
2023/07/14 01:20:15;;;;;;;8.63;5.70;;;17.90;99.90;;;;;;5038518;28;20118;-41
2023/07/14 01:23:16;;;;;;;9.10;5.80;;;17.90;99.90;;;;;;5039119;28;20107;-39
2023/07/14 01:25:57;;;;;;;6.93;5.72;;;17.80;99.90;;;;;;5037444;28;20041;-40
2023/07/14 01:28:24;;;;;;;7.22;5.72;;;17.80;99.90;;;;;;5026737;28;20172;-43
2023/07/14 01:30:51;;;;;;;7.97;5.93;;;17.80;99.90;;;;;;5027600;28;20489;-40
2023/07/14 01:33:20;;;;;;;6.57;5.95;;;17.80;99.90;;;;;;5020084;23;20376;-49
2023/07/14 01:35:55;;;;;;;6.55;5.57;;;17.70;99.90;;;;;;4994536;28;20038;-43
2023/07/14 01:38:23;;;;;;;7.55;5.85;;;17.70;99.90;;;;;;4989956;28;20042;-45
2023/07/14 01:40:51;;;;;;;7.18;5.95;;;17.70;99.90;;;;;;4970418;28;20598;-48
2023/07/14 01:43:20;;;;;;;7.97;6.10;;;17.70;99.90;;;;;;4987253;28;20141;-45
2023/07/14 01:45:58;;;;;;;7.63;6.20;;;17.70;99.90;;;;;;5010068;28;20117;-43
2023/07/14 01:48:34;;;;;;;8.38;6.20;;;17.70;99.90;;;;;;5005430;28;20061;-43
2023/07/14 01:51:06;;;;;;;6.88;6.10;;;17.70;99.90;;;;;;4995586;28;20041;-43
2023/07/14 01:53:42;;;;;;;;;;;17.70;99.90;;;;;;4988451;28;20105;-45
2023/07/14 01:56:15;;;;;;;7.28;6.05;;;17.70;99.90;;;;;;5008778;28;20076;-45
2023/07/14 01:58:59;;;;;;;7.67;6.07;;;17.80;99.90;;;;;;5008549;28;20391;-42
2023/07/14 02:01:29;;;;;;;7.40;6.18;;;17.70;99.90;;;;;;4995575;28;20129;-46
2023/07/14 02:03:57;;;;;;;9.55;6.60;;;17.70;99.90;;;;;;4990067;28;20041;-43
2023/07/14 02:06:25;;;;;;;6.57;5.60;;;17.70;99.90;;;;;;5013854;28;20569;-47
2023/07/14 02:08:52;;;;;;;6.78;5.85;;;17.60;99.90;;;;;;5012593;28;20057;-41
2023/07/14 02:11:22;;;;;;;7.18;6.40;;;17.60;99.90;;;;;;4994679;28;20426;-44
2023/07/14 02:13:52;;;;;;;11.82;6.10;;;17.50;99.90;;;;;;5012830;28;20300;-46
2023/07/14 02:16:21;;;;;;;7.80;5.55;;;17.50;99.90;;;;;;4994765;28;20112;-51
2023/07/14 02:18:49;;;;;;;7.80;5.93;;;17.50;99.90;;;;;;5004788;28;20045;-43
2023/07/14 02:21:24;;;;;;;7.15;5.90;;;17.40;99.90;;;;;;5004894;28;20038;-41
2023/07/14 02:23:53;;;;;;;6.57;5.88;;;17.40;99.90;;;;;;5009790;28;20103;-49
2023/07/14 02:26:30;;;;;;;8.55;6.20;;;17.40;99.90;;;;;;5014465;28;20518;-41
2023/07/14 02:28:58;;;;;;;6.82;5.75;;;17.30;99.90;;;;;;5014629;28;20135;-49
2023/07/14 02:31:53;;;;;;;6.75;6.05;;;17.30;99.90;;;;;;5012627;28;20392;-42
2023/07/14 02:34:22;;;;;;;7.72;5.60;;;17.20;99.90;;;;;;4999923;28;20042;-44
2023/07/14 02:37:03;;;;;;;7.15;5.70;;;17.20;99.90;;;;;;5014615;28;20129;-46
2023/07/14 02:39:37;;;;;;;8.70;6.65;;;17.10;99.90;;;;;;5012493;28;20133;-49
2023/07/14 02:42:05;;;;;;;9.02;6.30;;;17.10;99.90;;;;;;5008550;28;20050;-47
2023/07/14 02:44:36;;;;;;;7.65;5.75;;;17.10;99.90;;;;;;5011961;28;20042;-48
2023/07/14 02:47:09;;;;;;;8.55;6.20;;;17.20;99.90;;;;;;5023250;28;20132;-45
2023/07/14 02:49:37;;;;;;;7.45;6.20;;;17.10;99.90;;;;;;5007806;28;20050;-47
2023/07/14 02:52:04;;;;;;;9.73;6.15;;;17.00;99.90;;;;;;4996808;28;20190;-41
2023/07/14 02:54:32;;;;;;;6.45;5.78;;;17.10;99.90;;;;;;4997505;28;20049;-43
2023/07/14 02:56:59;;;;;;;6.90;6.20;;;17.10;99.90;;;;;;4995249;28;20046;-40
2023/07/14 02:59:27;;;;;;;7.50;6.07;;;17.00;99.90;;;;;;5009789;28;20046;-45
2023/07/14 03:01:54;;;;;;;8.13;5.85;;;16.90;99.90;;;;;;5011622;28;20045;-44
2023/07/14 03:04:23;;;;;;;8.30;6.32;;;16.90;99.90;;;;;;4993679;28;20030;-46
2023/07/14 03:06:51;;;;;;;6.93;6.05;;;16.80;99.90;;;;;;5016815;28;20042;-44
2023/07/14 03:09:19;;;;;;;9.02;6.50;;;16.90;99.90;;;;;;5011206;28;20522;-44
2023/07/14 03:11:46;;;;;;;7.47;5.80;;;16.80;99.90;;;;;;5014642;28;20045;-45
2023/07/14 03:14:14;;;;;;;7.80;6.65;;;16.80;99.90;;;;;;5015811;28;20558;-44
2023/07/14 03:16:41;;;;;;;8.63;6.25;;;16.70;99.90;;;;;;4999013;28;20452;-44
2023/07/14 03:19:08;;;;;;;9.85;6.68;;;16.70;99.90;;;;;;4991714;28;20038;-43
2023/07/14 03:21:36;;;;;;;7.93;6.45;;;16.70;99.90;;;;;;5016724;28;20046;-47
2023/07/14 03:24:03;;;;;;;11.10;6.43;;;16.70;99.90;;;;;;4991325;28;20160;-44
2023/07/14 03:26:31;;;;;;;8.70;6.65;;;16.70;99.90;;;;;;5009181;28;20046;-43
2023/07/14 03:28:58;;;;;;;7.55;6.00;;;16.70;99.90;;;;;;5012918;28;20394;-45
2023/07/14 03:31:25;;;;;;;6.60;6.00;;;16.70;99.90;;;;;;5012051;28;20042;-47
2023/07/14 03:33:53;;;;;;;8.73;6.32;;;16.70;99.90;;;;;;5010227;28;20053;-40
2023/07/14 03:36:20;;;;;;;7.43;6.43;;;16.70;99.90;;;;;;4997831;28;20467;-43
2023/07/14 03:39:24;;;;;;;7.88;6.10;;;16.70;99.90;;;;;;5015760;28;20045;-46
2023/07/14 03:41:53;;;;;;;8.60;6.50;;;16.80;99.90;;;;;;5006729;28;20049;-45
2023/07/14 03:44:21;;;;;;;10.88;6.45;;;16.80;99.90;;;;;;5011349;28;20062;-44
2023/07/14 03:46:49;;;;;;;7.13;6.18;;;16.80;99.90;;;;;;5010741;28;20038;-44
2023/07/14 03:49:17;;;;;;;7.15;6.45;;;16.80;99.90;;;;;;4993860;28;20549;-46
2023/07/14 03:51:45;;;;;;;11.65;6.22;;;16.80;99.90;;;;;;4998183;28;20034;-46
2023/07/14 03:54:12;;;;;;;6.95;6.03;;;16.80;99.90;;;;;;5011390;28;20057;-47
2023/07/14 03:56:40;;;;;;;11.60;6.47;;;16.90;99.90;;;;;;4996344;28;20061;-45
2023/07/14 03:59:08;;;;;;;7.55;6.35;;;16.90;99.90;;;;;;5011033;28;20057;-42
2023/07/14 04:01:37;;;;;;;8.70;6.50;;;16.90;99.90;;;;;;5013896;28;20060;-47
2023/07/14 04:04:05;;;;;;;9.73;6.28;;;17.00;99.90;;;;;;4988052;28;20649;-47
2023/07/14 04:06:32;;;;;;;8.88;6.68;;;16.90;99.90;;;;;;5012716;28;20060;-45
2023/07/14 04:09:01;;;;;;;10.38;6.53;;;17.00;99.90;;;;;;5014488;28;20502;-45
2023/07/14 04:11:33;;;;;;;9.93;7.15;;;17.00;99.90;;;;;;5009270;28;20049;-45
2023/07/14 04:14:02;;;;;;;7.50;6.38;;;17.00;99.90;;;;;;5010471;28;20386;-47
2023/07/14 04:16:30;;;;;;;7.03;6.32;;;17.10;99.90;;;;;;5009923;28;20073;-43
2023/07/14 04:18:57;;;;;;;9.40;6.85;;;17.20;99.90;;;;;;5011551;28;20056;-46
2023/07/14 04:21:25;;;;;;;7.50;6.55;;;17.30;99.90;;;;;;5008296;28;20105;-46
2023/07/14 04:23:52;;;;;;;9.73;6.97;;;17.30;99.90;;;;;;5010900;28;20112;-42
2023/07/14 04:26:20;;;;;;;8.55;6.50;;;17.40;99.90;;;;;;5012110;28;20083;-45
2023/07/14 04:28:48;;;;;;;7.97;6.63;;;17.60;99.90;;;;;;5013892;28;20045;-46
2023/07/14 04:31:16;;;;;;;8.80;6.80;;;17.60;99.90;;;;;;5017136;28;20046;-48
2023/07/14 04:33:45;;;;;;;8.02;6.88;;;17.70;99.90;;;;;;5012961;28;20721;-44
2023/07/14 04:36:14;;;;;;;9.05;6.70;;;17.90;99.90;;;;;;5018892;28;20050;-43
2023/07/14 04:38:45;;;;;;;9.88;6.95;;;18.00;99.90;;;;;;5016739;28;20476;-44
2023/07/14 04:41:13;;;;;;;9.63;7.10;;;18.00;99.90;;;;;;5009427;28;20070;-44
2023/07/14 04:43:40;;;;;;;8.00;7.03;;;18.10;99.90;;;;;;5010683;28;20105;-46
2023/07/14 04:46:08;;;;;;;10.68;7.18;;;18.20;99.90;;;;;;5002274;28;20061;-47
2023/07/14 04:48:35;;;;;;;10.30;7.50;;;18.30;99.90;;;;;;5001792;28;20042;-43
2023/07/14 04:51:02;;;;;;;9.48;7.10;;;18.40;99.90;;;;;;5008372;28;20046;-42
2023/07/14 04:53:30;;;;;;;10.23;7.25;;;18.50;99.90;;;;;;5009335;28;20050;-44
2023/07/14 04:55:57;;;;;;;8.25;7.35;;;18.70;99.90;;;;;;4992654;28;20072;-45
2023/07/14 04:58:24;;;;;;;9.40;6.30;;;18.80;99.90;;;;;;5006262;28;20045;-44
2023/07/14 05:00:52;;;;;;;9.07;7.68;;;18.90;99.90;;;;;;5007771;28;20053;-44
2023/07/14 05:03:19;;;;;;;8.13;7.35;;;19.00;99.90;;;;;;5005140;28;20046;-45
2023/07/14 05:05:47;;;;;;;8.00;7.03;;;19.00;99.90;;;;;;5006900;28;20049;-45
2023/07/14 05:08:15;;;;;;;11.35;7.78;;;19.10;99.90;;;;;;5003506;28;20057;-45
2023/07/14 05:10:42;;;;;;;11.13;8.00;;;19.10;99.90;;;;;;5014084;28;20462;-44
2023/07/14 05:13:09;;;;;;;11.02;7.25;;;19.10;99.90;;;;;;4999493;28;20046;-43
2023/07/14 05:15:40;;;;;;;7.97;7.18;;;19.10;99.90;;;;;;5002947;28;20422;-47
2023/07/14 05:18:07;;;;;;;9.65;7.90;;;19.10;99.90;;;;;;5004923;28;20137;-43
2023/07/14 05:20:36;;;;;;;8.88;7.70;;;19.20;99.90;;;;;;5008478;28;20045;-47
2023/07/14 05:23:03;;;;;;;8.63;7.72;;;19.30;99.90;;;;;;5001280;28;20113;-42
2023/07/14 05:25:31;;;;;;;11.55;7.53;;;19.30;99.90;;;;;;5000747;28;20060;-48
2023/07/14 05:27:58;;;;;;;12.68;8.07;;;19.40;99.90;;;;;;5005009;28;20593;-43
2023/07/14 05:30:26;;;;;;;10.07;7.72;;;19.40;99.90;;;;;;5004293;28;20590;-46
2023/07/14 05:32:53;;;;;;;8.60;7.70;;;19.50;99.90;;;;;;5008506;28;20053;-44
2023/07/14 05:35:21;;;;;;;7.75;6.97;;;19.50;99.90;;;;;;5007610;28;20514;-42
2023/07/14 05:37:49;;;;;;;10.07;7.30;;;19.60;99.90;;;;;;4999572;28;20534;-46
2023/07/14 05:40:17;;;;;;;14.23;8.23;;;19.70;99.90;;;;;;5006725;28;20125;-46
2023/07/14 05:42:46;;;;;;;10.43;7.40;;;19.80;99.90;;;;;;5014516;28;20165;-45
2023/07/14 05:45:14;;;;;;;16.85;7.57;;;19.90;99.90;;;;;;5008168;28;20038;-44
2023/07/14 05:47:45;;;;;;;14.93;7.43;;;20.10;99.90;;;;;;5005790;28;20036;-50
2023/07/14 05:50:14;;;;;;;11.80;8.17;;;20.30;99.90;;;;;;5001556;28;20136;-46
2023/07/14 05:52:42;;;;;;;14.25;8.00;;;20.60;99.90;;;;;;5005349;28;20107;-44
2023/07/14 05:55:10;;;;;;;15.30;7.97;;;20.90;99.90;;;;;;4999018;28;20176;-49
2023/07/14 05:57:38;;;;;;;12.13;7.93;;;21.10;99.90;;;;;;5001245;28;20049;-50
2023/07/14 06:00:13;;;;;;;10.63;7.68;;;21.10;99.90;;;;;;5002173;28;20058;-47
2023/07/14 06:02:41;;;;;;;17.13;7.43;;;21.20;99.90;;;;;;5004717;28;20064;-45
2023/07/14 06:05:11;;;;;;;10.35;7.60;;;21.30;99.90;;;;;;4999403;28;20050;-43
2023/07/14 06:07:40;;;;;;;9.50;7.80;;;21.50;99.90;;;;;;5004357;28;20424;-45
2023/07/14 06:10:09;;;;;;;10.70;7.22;;;21.60;99.90;;;;;;5005046;28;20046;-45
2023/07/14 06:12:37;;;;;;;11.05;7.35;;;21.70;99.90;;;;;;5006443;28;20050;-51
2023/07/14 06:15:05;;;;;;;8.95;7.30;;;21.80;99.90;;;;;;5004311;28;20046;-44
2023/07/14 06:17:32;;;;;;;9.07;7.13;;;21.80;99.90;;;;;;5004351;28;20104;-48
2023/07/14 06:19:59;;;;;;;20.80;8.40;;;21.80;99.90;;;;;;5002577;28;20534;-42
2023/07/14 06:22:27;;;;;;;8.05;7.25;;;21.90;99.90;;;;;;5003066;28;20045;-44
2023/07/14 06:24:55;;;;;;;8.20;6.78;;;22.20;99.90;;;;;;4986309;28;20053;-43
2023/07/14 06:27:23;;;;;;;9.25;7.05;;;22.40;99.90;;;;;;5001849;28;20180;-47
2023/07/14 06:29:50;;;;;;;9.95;7.75;;;22.50;99.90;;;;;;5004985;28;20122;-45
2023/07/14 06:32:17;;;;;;;10.93;7.30;;;22.60;99.90;;;;;;5008134;28;20071;-46
2023/07/14 06:34:46;;;;;;;8.88;7.15;;;22.70;99.90;;;;;;5006208;28;20378;-49
2023/07/14 06:37:14;;;;;;;8.07;6.50;;;22.70;99.90;;;;;;5006839;28;20058;-47
2023/07/14 06:39:41;;;;;;;7.82;7.03;;;23.00;99.90;;;;;;5005700;28;20382;-50
2023/07/14 06:42:09;;;;;;;8.35;6.60;;;23.20;99.90;;;;;;5006894;28;20038;-47
2023/07/14 06:44:37;;;;;;;8.77;7.03;;;23.20;99.90;;;;;;4990044;28;20050;-43
2023/07/14 06:47:04;;;;;;;8.88;6.07;;;23.20;99.90;;;;;;5007935;28;20133;-48
2023/07/14 06:49:32;;;;;;;13.45;6.47;;;23.30;99.90;;;;;;5010146;28;20057;-46
2023/07/14 06:51:59;;;;;;;10.93;6.63;;;23.40;99.90;;;;;;5004379;28;20044;-44
2023/07/14 06:54:26;;;;;;;8.55;6.50;;;23.40;99.90;;;;;;5011240;28;20108;-41
2023/07/14 06:56:57;;;;;;;12.63;5.90;;;23.40;99.90;;;;;;5010426;28;20507;-48
2023/07/14 06:59:25;;;;;;;8.02;6.30;;;23.50;99.90;;;;;;5007019;28;20098;-45
2023/07/14 07:01:52;;;;;;;7.28;5.85;;;23.70;99.90;;;;;;5014317;28;20038;-51
2023/07/14 07:04:19;;;;;;;7.05;6.07;;;23.80;99.90;;;;;;5011050;28;20049;-45
2023/07/14 07:06:47;;;;;;;9.45;7.30;;;23.90;99.90;;;;;;5014176;28;20068;-45
2023/07/14 07:09:14;;;;;;;8.43;7.00;;;23.90;99.90;;;;;;5018473;28;20123;-48
2023/07/14 07:11:41;;;;;;;9.52;6.43;;;24.10;99.90;;;;;;5012157;28;20054;-44
2023/07/14 07:14:09;;;;;;;10.45;6.35;;;24.20;99.90;;;;;;5008835;28;20416;-47
2023/07/14 07:16:36;;;;;;;6.85;6.15;;;24.40;99.90;;;;;;5009844;28;20078;-50
2023/07/14 07:19:04;;;;;;;9.45;6.13;;;24.50;99.90;;;;;;5016973;28;20499;-44
2023/07/14 07:21:31;;;;;;;7.03;6.10;;;24.60;99.90;;;;;;5013058;28;20088;-44
2023/07/14 07:23:58;;;;;;;10.02;6.20;;;24.70;99.90;;;;;;5012484;28;20132;-46
2023/07/14 07:26:26;;;;;;;6.55;5.72;;;24.80;99.90;;;;;;5010848;28;20061;-45
2023/07/14 07:28:53;;;;;;;5.75;5.20;;;24.80;99.90;;;;;;5011650;28;20072;-42
2023/07/14 07:31:21;;;;;;;7.50;5.40;;;24.50;99.90;;;;;;5010500;28;20236;-45
2023/07/14 07:33:49;;;;;;;7.82;5.20;;;24.30;99.90;;;;;;5033737;23;20503;-46
2023/07/14 07:36:17;;;;;;;6.03;5.20;;;24.10;99.90;;;;;;5050346;28;20068;-45
2023/07/14 07:38:49;;;;;;;7.72;5.93;;;24.00;99.90;;;;;;5043058;28;20056;-44
2023/07/14 07:41:19;;;;;;;9.02;5.75;;;24.00;99.90;;;;;;5049096;28;20049;-46
2023/07/14 07:43:47;;;;;;;12.50;8.55;;;24.20;99.90;;;;;;5037687;28;20049;-48
2023/07/14 07:46:15;;;;;;;11.05;7.97;;;24.30;99.90;;;;;;5035688;28;20503;-48
2023/07/14 07:48:44;;;;;;;8.98;7.60;;;24.50;99.90;;;;;;5036298;28;20190;-43
2023/07/14 07:51:12;;;;;;;7.28;6.40;;;24.80;99.90;;;;;;5037750;28;20632;-42
2023/07/14 07:53:40;;;;;;;7.82;6.10;;;25.10;99.90;;;;;;5034453;28;20061;-43
2023/07/14 07:56:09;;;;;;;11.10;6.28;;;25.40;99.90;;;;;;5029630;28;20053;-49
2023/07/14 07:58:37;;;;;;;6.10;5.50;;;25.70;99.90;;;;;;5023447;28;20557;-44
2023/07/14 08:01:06;;;;;;;7.15;5.07;;;25.90;99.90;;;;;;5034053;28;20091;-45
2023/07/14 08:03:34;;;;;;;8.85;5.35;;;25.90;98.70;;;;;;5048379;28;20037;-47
2023/07/14 08:06:05;;;;;;;6.15;5.55;;;25.70;98.90;;;;;;5056931;28;20666;-44
2023/07/14 08:08:33;;;;;;;7.93;5.82;;;26.00;99.40;;;;;;5065326;28;20048;-48
2023/07/14 08:11:01;;;;;;;10.88;6.97;;;26.30;99.00;;;;;;5048155;28;20464;-41
2023/07/14 08:13:29;;;;;;;8.85;7.40;;;26.70;98.30;;;;;;5060869;28;20044;-41
2023/07/14 08:15:58;;;;;;;10.05;6.50;;;27.00;96.50;;;;;;5049743;28;20037;-44
2023/07/14 08:18:26;;;;;;;9.70;5.60;;;27.00;96.00;;;;;;5055247;28;20040;-44
2023/07/14 08:20:53;;;;;;;6.00;5.38;;;26.90;95.80;;;;;;5049906;28;20068;-43
2023/07/14 08:23:22;;;;;;;12.27;10.95;;;26.60;94.00;;;;;;5049183;28;20072;-42
2023/07/14 08:25:58;;;;;;;7.47;6.70;;;26.20;94.10;;;;;;5058360;28;20095;-42
2023/07/14 08:28:26;;;;;;;7.60;5.60;;;26.20;94.20;;;;;;5055376;28;20132;-41
2023/07/14 08:30:57;;;;;;;6.75;5.43;;;25.90;94.20;;;;;;5061196;28;20183;-43
2023/07/14 08:33:25;;;;;;;7.18;5.40;;;25.90;93.70;;;;;;5055500;28;20060;-45
2023/07/14 08:35:54;;;;;;;6.90;5.72;;;25.80;93.10;;;;;;5057243;28;20048;-41
2023/07/14 08:38:22;;;;;;;6.10;5.55;;;25.80;93.20;;;;;;5051904;28;20053;-46
2023/07/14 08:41:26;;;;;;;9.85;5.38;;;26.00;92.70;;;;;;5048196;28;20094;-45
2023/07/14 08:44:17;;;;;;;5.53;5.03;;;26.30;92.50;;;;;;5058575;28;20044;-44
2023/07/14 08:47:05;;;;;;;6.90;5.53;;;26.50;91.50;;;;;;5056028;28;20041;-46
2023/07/14 08:49:51;;;;;;;6.95;5.20;;;26.50;91.40;;;;;;5055849;28;20814;-43
2023/07/14 08:52:32;;;;;;;8.48;5.40;;;26.50;91.10;;;;;;5048871;28;20068;-44
2023/07/14 08:55:16;;;;;;;5.65;5.13;;;26.10;90.50;;;;;;5054114;28;20406;-44
2023/07/14 08:57:48;;;;;;;7.55;6.40;;;25.90;90.70;;;;;;5056824;28;20140;-43
2023/07/14 09:00:36;;;;;;;7.97;5.60;;;26.10;91.30;;;;;;5057575;28;20144;-42
2023/07/14 09:03:15;;;;;;;8.32;5.60;;;26.30;91.50;;;;;;5055892;28;20048;-41
2023/07/14 09:05:52;;;;;;;7.10;5.38;;;26.50;91.70;;;;;;5052628;28;20513;-42
2023/07/14 09:08:26;;;;;;;6.50;5.50;;;26.50;91.30;;;;;;5049743;28;20051;-43
2023/07/14 09:11:09;;;;;;;10.07;5.82;;;26.80;90.70;;;;;;5052408;28;20216;-45
2023/07/14 09:13:44;;;;;;;8.10;6.47;;;26.90;90.00;;;;;;5050145;28;20125;-48
2023/07/14 09:16:12;;;;;;;6.80;5.90;;;26.80;89.00;;;;;;5056440;28;20072;-48
2023/07/14 09:18:40;;;;;;;6.15;5.50;;;27.00;89.00;;;;;;5049261;28;20044;-41
2023/07/14 09:21:13;;;;;;;10.27;6.35;;;27.20;88.00;;;;;;5049902;28;20060;-47
2023/07/14 09:23:58;;;;;;;7.95;6.85;;;27.40;86.10;;;;;;5052891;28;20569;-46
2023/07/14 09:26:26;;;;;;;11.00;6.55;;;27.70;86.70;;;;;;5047526;28;20525;-45
2023/07/14 09:28:56;;;;;;;6.60;5.95;;;28.00;85.80;;;;;;5054547;28;20101;-46
2023/07/14 09:31:44;;;;;;;9.85;6.30;;;28.10;84.90;;;;;;5050026;28;20043;-45
2023/07/14 09:34:30;;;;;;;8.07;6.22;;;28.10;82.60;;;;;;5049199;28;20045;-43
2023/07/14 09:36:58;;;;;;;7.65;5.90;;;28.00;82.00;;;;;;5047382;28;20588;-42
2023/07/14 09:39:35;;;;;;;7.72;6.18;;;28.00;82.50;;;;;;5048308;28;20578;-43
2023/07/14 09:42:07;;;;;;;6.22;5.70;;;28.10;82.40;;;;;;5056156;28;20124;-48
2023/07/14 09:44:34;;;;;;;7.82;6.63;;;28.10;80.10;;;;;;5050592;28;20501;-41
2023/07/14 09:47:04;;;;;;;7.13;6.00;;;28.10;79.30;;;;;;5051531;28;20037;-42
2023/07/14 09:49:42;;;;;;;9.27;8.32;;;28.30;79.60;;;;;;5047134;28;20455;-43
2023/07/14 09:52:19;;;;;;;8.57;7.60;;;28.40;78.90;;;;;;5049331;28;20107;-45
2023/07/14 09:54:52;;;;;;;10.00;8.45;;;28.30;78.60;;;;;;5049259;28;20073;-43
2023/07/14 09:57:24;;;;;;;9.25;6.82;;;28.20;79.10;;;;;;5053200;28;20417;-45
2023/07/14 10:00:16;;;;;;;7.70;6.90;;;28.40;78.20;;;;;;5047698;28;20406;-43
2023/07/14 10:02:43;;;;;;;8.55;5.30;;;28.40;78.20;;;;;;5048653;28;20056;-41
2023/07/14 10:05:44;;;;;;;8.65;5.82;;;28.20;77.50;;;;;;5047244;28;20531;-43
2023/07/14 10:08:24;;;;;;;8.20;4.88;;;28.30;77.50;;;;;;5050680;28;20103;-44
2023/07/14 10:10:53;;;;;;;7.22;5.72;;;28.80;77.00;;;;;;5049964;28;20094;-44
2023/07/14 10:13:26;;;;;;;9.10;6.10;;;29.00;76.50;;;;;;5047448;28;20049;-47
2023/07/14 10:16:14;;;;;;;6.10;5.50;;;29.40;77.20;;;;;;5055262;28;20052;-47
2023/07/14 10:18:55;;;;;;;6.20;5.60;;;29.70;76.20;;;;;;5050311;28;20127;-46
2023/07/14 10:21:34;;;;;;;6.03;4.70;;;30.10;74.40;;;;;;5055659;28;20493;-46
2023/07/14 10:24:06;;;;;;;7.45;5.18;;;30.10;73.40;;;;;;5047125;28;20029;-47
2023/07/14 10:26:36;;;;;;;6.72;4.55;;;30.50;73.30;;;;;;5057229;28;20539;-46
2023/07/14 10:29:05;;;;;;;6.95;5.05;;;30.60;71.80;;;;;;5048362;28;20071;-46
2023/07/14 10:31:41;;;;;;;5.38;4.80;;;30.50;71.90;;;;;;5049704;28;20049;-44
2023/07/14 10:34:24;;;;;;;6.60;5.40;;;30.70;71.20;;;;;;5053410;28;20056;-46
2023/07/14 10:36:57;;;;;;;6.78;5.00;;;30.70;70.60;;;;;;5053796;28;20080;-45
2023/07/14 10:39:42;;;;;;;7.15;4.97;;;31.20;69.80;;;;;;5050987;28;20049;-43
2023/07/14 10:42:16;;;;;;;13.25;5.70;;;31.20;69.40;;;;;;5053758;28;20045;-44
2023/07/14 10:44:45;;;;;;;12.05;6.18;;;31.50;69.80;;;;;;5050490;28;20056;-47
2023/07/14 10:47:20;;;;;;;7.85;5.60;;;31.80;68.20;;;;;;5051810;28;20539;-45
2023/07/14 10:50:23;;;;;;;6.15;4.97;;;31.70;67.70;;;;;;5064847;28;20405;-47
2023/07/14 10:53:12;;;;;;;10.70;5.30;;;32.00;66.90;;;;;;5036328;28;20187;-47
2023/07/14 10:55:42;;;;;;;6.95;5.22;;;31.90;67.00;;;;;;5051877;28;20069;-45
2023/07/14 10:58:18;;;;;;;9.05;4.88;;;32.10;66.10;;;;;;5049386;28;20148;-43
2023/07/14 11:00:52;;;;;;;6.22;5.00;;;32.30;65.50;;;;;;5057346;28;20579;-48
2023/07/14 11:03:32;;;;;;;7.53;5.10;;;32.50;64.60;;;;;;5050172;28;20041;-47
2023/07/14 11:06:23;;;;;;;6.83;4.83;;;32.30;64.10;;;;;;5052235;28;20393;-47
2023/07/14 11:08:53;;;;;;;6.85;4.93;;;32.10;63.30;;;;;;5051889;28;20386;-43
2023/07/14 11:11:32;;;;;;;7.63;5.93;;;31.60;63.80;;;;;;5048875;28;20128;-47
2023/07/14 11:14:15;;;;;;;7.78;5.70;;;31.90;63.90;;;;;;5050113;28;20068;-43
2023/07/14 11:17:33;;;;;;;7.28;5.75;;;31.80;63.70;;;;;;5054973;28;20055;-45
2023/07/14 11:20:15;;;;;;;10.23;7.03;;;31.70;64.40;;;;;;4974726;28;20050;-44
2023/07/14 11:23:23;;;;;;;6.55;5.45;;;32.20;63.90;;;;;;4967324;28;20095;-44
2023/07/14 11:25:50;;;;;;;7.85;5.60;;;32.50;61.30;;;;;;4976397;28;20038;-47
2023/07/14 11:28:51;;;;;;;6.40;5.85;;;32.70;60.80;;;;;;4969152;28;20062;-46
2023/07/14 11:31:23;;;;;;;6.28;5.45;;;32.30;61.10;;;;;;4969237;28;20046;-50
2023/07/14 11:34:11;;;;;;;7.18;5.90;;;32.70;60.80;;;;;;4977311;28;20050;-45
2023/07/14 11:36:57;;;;;;;7.07;6.05;;;32.80;60.80;;;;;;4981027;28;20138;-48
2023/07/14 11:39:41;;;;;;;8.63;5.80;;;32.60;59.90;;;;;;4959335;28;20191;-46
2023/07/14 11:42:35;;;;;;;7.30;5.75;;;32.60;59.90;;;;;;4969869;28;20053;-47
2023/07/14 11:45:11;;;;;;;6.25;5.65;;;32.10;60.60;;;;;;4975322;28;20069;-48
2023/07/14 11:47:42;;;;;;;6.55;5.53;;;32.60;60.20;;;;;;4966970;28;20043;-45
2023/07/14 11:50:15;;;;;;;6.57;5.30;;;33.20;59.20;;;;;;4967568;28;20478;-44
2023/07/14 11:53:01;;;;;;;6.70;5.50;;;32.60;59.00;;;;;;4970880;28;20353;-45
2023/07/14 11:55:31;;;;;;;7.63;5.60;;;32.40;59.10;;;;;;5005750;28;20052;-44
2023/07/14 11:58:14;;;;;;;6.40;5.80;;;32.00;59.30;;;;;;5053262;28;20304;-42
2023/07/14 12:00:47;;;;;;;7.22;5.78;;;32.50;59.20;;;;;;5052397;28;20432;-46
2023/07/14 12:03:24;;;;;;;6.72;5.38;;;32.80;59.20;;;;;;5049088;28;20045;-44
2023/07/14 12:06:19;;;;;;;8.52;5.95;;;33.30;59.00;;;;;;5048908;28;20053;-45
2023/07/14 12:09:06;;;;;;;7.13;5.53;;;33.20;58.80;;;;;;5052611;28;20061;-42
2023/07/14 12:11:39;;;;;;;6.38;5.40;;;33.60;58.20;;;;;;5052258;28;20053;-43
2023/07/14 12:14:27;;;;;;;6.53;5.93;;;33.50;58.00;;;;;;5061975;28;20045;-48
2023/07/14 12:16:55;;;;;;;8.55;6.35;;;33.70;57.90;;;;;;5057454;28;20114;-44
2023/07/14 12:19:31;;;;;;;11.45;7.57;;;33.60;58.10;;;;;;5048916;28;20243;-46
2023/07/14 12:22:08;;;;;;;11.05;7.57;;;33.50;58.20;;;;;;5051231;28;20037;-43
2023/07/14 12:24:42;;;;;;;6.95;6.25;;;33.50;58.20;;;;;;5048789;28;20045;-44
2023/07/14 12:27:25;;;;;;;6.78;6.20;;;34.00;57.50;;;;;;5049459;28;20108;-46
2023/07/14 12:30:20;;;;;;;6.45;5.85;;;34.50;56.80;;;;;;5049704;28;20104;-47
2023/07/14 12:32:50;;;;;;;11.25;6.45;;;34.50;55.80;;;;;;5048929;28;20056;-48
2023/07/14 12:35:18;;;;;;;8.30;6.53;;;35.30;55.20;;;;;;5055545;28;20344;-46
2023/07/14 12:37:46;;;;;;;7.68;6.97;;;35.90;55.60;;;;;;5048630;28;20406;-48
2023/07/14 12:40:25;;;;;;;6.95;5.95;;;35.90;54.50;;;;;;5048759;28;20056;-47
2023/07/14 12:42:56;;;;;;;6.68;5.90;;;36.60;54.10;;;;;;5055657;28;20091;-48
2023/07/14 12:45:24;;;;;;;7.13;5.70;;;36.80;53.90;;;;;;5053784;28;20128;-43
2023/07/14 12:47:54;;;;;;;7.38;5.75;;;36.80;53.90;;;;;;5049926;28;20559;-46
2023/07/14 12:50:25;;;;;;;7.93;5.72;;;36.80;54.00;;;;;;5055940;28;20044;-43
2023/07/14 12:52:53;;;;;;;6.53;5.97;;;37.30;52.10;;;;;;5050153;28;20055;-46
2023/07/14 12:55:24;;;;;;;5.45;4.65;;;37.20;51.70;;;;;;5049549;28;20044;-44
2023/07/14 12:57:52;;;;;;;5.22;4.70;;;37.10;51.20;;;;;;5063896;28;20393;-47
2023/07/14 13:00:28;;;;;;;6.82;4.78;;;36.40;51.40;;;;;;5048320;28;20136;-50
2023/07/14 13:02:56;;;;;;;11.13;6.32;;;35.50;53.00;;;;;;5052519;28;20558;-44
2023/07/14 13:05:32;;;;;;;7.38;6.78;;;36.00;53.00;;;;;;5053713;28;20524;-46
2023/07/14 13:08:00;;;;;;;7.28;6.60;;;36.90;52.40;;;;;;5030258;28;20451;-45
2023/07/14 13:10:35;;;;;;;7.85;7.00;;;37.80;50.70;;;;;;5054911;28;20123;-46
2023/07/14 13:13:08;;;;;;;7.97;7.18;;;37.80;50.60;;;;;;5046803;28;20525;-49